Time;durP1;ratioP1;P1;durP2;ratioP2;P2;SDS_P1;SDS_P2;PMS_P1;PMS_P2;Temp;Humidity;BMP_temperature;BMP_pressure;BME280_temperature;BME280_humidity;BME280_pressure;Samples;Min_cycle;Max_cycle;Signal;HPM_P1;HPM_P2
2022/06/11 00:02:19;;;;;;;1.33;1.23;;;21.40;60.90;;;;;;5001849;28;20660;-70
2022/06/11 00:04:44;;;;;;;1.98;1.50;;;21.40;61.00;;;;;;5016804;28;20184;-70
2022/06/11 00:07:22;;;;;;;1.55;1.25;;;21.40;60.90;;;;;;5018041;28;20191;-70
2022/06/11 00:09:50;;;;;;;1.40;1.27;;;21.40;60.90;;;;;;5018259;28;20195;-70
2022/06/11 00:12:16;;;;;;;1.52;1.42;;;21.40;61.00;;;;;;5001930;28;20190;-70
2022/06/11 00:14:46;;;;;;;1.45;1.30;;;21.40;61.00;;;;;;5033972;28;20192;-70
2022/06/11 00:17:15;;;;;;;1.20;1.10;;;21.30;60.80;;;;;;5016821;28;20253;-70
2022/06/11 00:19:42;;;;;;;1.40;1.30;;;21.40;61.00;;;;;;4991800;28;20211;-69
2022/06/11 00:22:09;;;;;;;1.30;1.20;;;21.40;61.00;;;;;;5008528;28;20251;-70
2022/06/11 00:24:36;;;;;;;1.83;1.20;;;21.30;60.90;;;;;;5032320;28;20184;-70
2022/06/11 00:27:03;;;;;;;1.27;1.17;;;21.40;61.00;;;;;;5017873;28;20188;-69
2022/06/11 00:29:34;;;;;;;1.27;1.17;;;21.30;60.80;;;;;;5000382;28;20226;-69
2022/06/11 00:32:00;;;;;;;1.60;1.20;;;21.30;60.80;;;;;;5016217;28;20180;-70
2022/06/11 00:34:26;;;;;;;1.20;1.10;;;21.30;60.80;;;;;;5015936;28;20198;-70
2022/06/11 00:36:53;;;;;;;1.52;1.38;;;21.30;60.90;;;;;;5000599;28;20278;-70
2022/06/11 00:39:24;;;;;;;1.20;1.13;;;21.30;60.80;;;;;;5017489;28;20229;-70
2022/06/11 00:41:55;;;;;;;1.40;1.15;;;21.30;60.80;;;;;;5017946;28;20184;-70
2022/06/11 00:44:21;;;;;;;1.52;1.42;;;21.30;60.80;;;;;;5016876;28;20184;-70
2022/06/11 00:47:06;;;;;;;1.30;1.20;;;21.30;60.80;;;;;;5034464;28;20195;-70
2022/06/11 00:49:58;;;;;;;1.27;1.17;;;21.30;60.80;;;;;;5010846;28;20222;-69
2022/06/11 00:52:38;;;;;;;1.08;1.00;;;21.30;60.80;;;;;;5006894;28;20186;-70
2022/06/11 00:55:10;;;;;;;1.30;1.20;;;21.30;60.80;;;;;;5016446;28;20180;-70
2022/06/11 00:57:59;;;;;;;1.40;1.30;;;21.30;60.90;;;;;;5017419;28;20282;-69
2022/06/11 01:00:42;;;;;;;1.48;1.38;;;21.30;60.90;;;;;;5033836;28;20195;-70
2022/06/11 01:03:20;;;;;;;1.63;1.52;;;21.30;60.90;;;;;;5017283;28;20188;-68
2022/06/11 01:05:57;;;;;;;1.73;1.10;;;21.30;60.80;;;;;;5016312;28;20172;-68
2022/06/11 01:09:15;;;;;;;1.40;1.30;;;21.30;60.90;;;;;;5016728;28;20223;-70
2022/06/11 01:12:22;;;;;;;1.20;1.20;;;21.30;60.90;;;;;;5017055;28;20187;-70
2022/06/11 01:14:59;;;;;;;1.40;1.30;;;21.30;60.80;;;;;;4999726;28;20180;-69
2022/06/11 01:17:40;;;;;;;1.27;1.17;;;21.30;60.80;;;;;;5000915;28;20180;-69
2022/06/11 01:20:44;;;;;;;1.10;0.93;;;21.30;60.90;;;;;;5009933;28;20521;-70
2022/06/11 01:23:52;;;;;;;1.25;1.20;;;21.30;60.90;;;;;;5020905;28;20176;-70
2022/06/11 01:27:09;;;;;;;1.88;1.50;;;21.20;60.80;;;;;;5004944;28;20176;-70
2022/06/11 01:30:00;;;;;;;1.05;1.05;;;21.20;60.70;;;;;;5004584;28;20212;-70
2022/06/11 01:32:46;;;;;;;1.67;1.35;;;21.30;60.90;;;;;;5022476;28;20173;-70
2022/06/11 01:35:28;;;;;;;1.38;1.27;;;21.30;60.90;;;;;;5003781;28;20204;-70
2022/06/11 01:38:06;;;;;;;1.30;1.17;;;21.30;60.80;;;;;;5002975;28;20288;-69
2022/06/11 01:40:53;;;;;;;1.50;1.40;;;21.30;60.80;;;;;;5019033;28;20192;-69
2022/06/11 01:43:25;;;;;;;1.50;1.35;;;21.30;60.80;;;;;;5002746;28;20191;-69
2022/06/11 01:45:52;;;;;;;1.30;1.20;;;21.20;60.80;;;;;;5020800;28;20161;-69
2022/06/11 01:48:28;;;;;;;1.30;1.20;;;21.20;60.70;;;;;;5018272;28;20229;-70
2022/06/11 01:51:23;;;;;;;1.15;1.05;;;21.20;60.70;;;;;;5012722;28;20223;-70
2022/06/11 01:54:20;;;;;;;1.27;1.20;;;21.20;60.70;;;;;;5008245;28;20564;-69
2022/06/11 01:57:15;;;;;;;1.45;1.35;;;21.20;60.80;;;;;;4991104;28;20278;-69
2022/06/11 02:00:21;;;;;;;1.13;1.05;;;21.20;60.80;;;;;;5020830;28;20378;-69
2022/06/11 02:03:06;;;;;;;1.45;1.35;;;21.20;60.70;;;;;;5020692;28;20168;-69
2022/06/11 02:06:04;;;;;;;1.33;1.20;;;21.20;60.80;;;;;;5003876;28;20184;-69
2022/06/11 02:08:53;;;;;;;1.35;1.25;;;21.20;60.70;;;;;;5004418;28;20216;-69
2022/06/11 02:11:42;;;;;;;0.95;0.95;;;21.20;60.70;;;;;;5004514;28;20230;-69
2022/06/11 02:14:21;;;;;;;1.10;1.10;;;21.30;60.90;;;;;;5036184;28;20188;-69
2022/06/11 02:16:52;;;;;;;1.55;1.05;;;21.20;60.80;;;;;;5021224;28;20205;-69
2022/06/11 02:19:47;;;;;;;1.20;1.20;;;21.20;60.80;;;;;;5014516;28;20213;-70
2022/06/11 02:22:25;;;;;;;1.48;1.38;;;21.20;60.70;;;;;;5016612;28;20216;-69
2022/06/11 02:25:08;;;;;;;1.60;1.50;;;21.20;60.70;;;;;;5012774;28;20292;-69
2022/06/11 02:27:37;;;;;;;1.42;1.27;;;21.20;60.70;;;;;;5000394;28;20187;-69
2022/06/11 02:30:07;;;;;;;1.38;1.10;;;21.20;60.80;;;;;;5008436;28;20205;-68
2022/06/11 02:32:33;;;;;;;1.20;1.20;;;21.20;60.70;;;;;;5000784;28;20389;-70
2022/06/11 02:35:07;;;;;;;1.00;1.00;;;21.20;60.70;;;;;;4997089;28;20185;-69
2022/06/11 02:37:40;;;;;;;1.38;1.30;;;21.20;60.70;;;;;;5008684;28;20249;-68
2022/06/11 02:40:28;;;;;;;1.23;1.15;;;21.20;60.70;;;;;;5004567;28;20180;-69
2022/06/11 02:42:55;;;;;;;1.48;1.38;;;21.20;60.70;;;;;;5024661;28;20196;-69
2022/06/11 02:45:21;;;;;;;1.55;1.45;;;21.20;60.70;;;;;;5022655;28;20252;-69
2022/06/11 02:47:51;;;;;;;1.48;1.38;;;21.20;60.70;;;;;;5000956;28;20220;-69
2022/06/11 02:50:34;;;;;;;1.17;1.17;;;21.10;61.40;;;;;;5001664;28;20177;-69
2022/06/11 02:53:05;;;;;;;1.20;1.10;;;21.20;60.70;;;;;;5020789;28;20219;-69
2022/06/11 02:55:32;;;;;;;1.25;1.20;;;21.10;60.60;;;;;;5020008;28;20259;-68
2022/06/11 02:57:58;;;;;;;1.20;1.10;;;21.20;60.70;;;;;;5018953;28;20208;-69
2022/06/11 03:00:31;;;;;;;1.13;1.13;;;21.20;60.70;;;;;;5017365;28;20194;-69
2022/06/11 03:02:58;;;;;;;1.30;1.20;;;21.20;60.70;;;;;;5001768;28;20561;-69
2022/06/11 03:05:29;;;;;;;1.27;1.25;;;21.20;60.70;;;;;;5000716;28;20191;-69
2022/06/11 03:07:57;;;;;;;1.20;1.10;;;21.20;60.70;;;;;;5034331;28;20315;-69
2022/06/11 03:10:24;;;;;;;1.30;1.20;;;21.20;60.70;;;;;;5002407;28;20227;-69
2022/06/11 03:12:51;;;;;;;1.33;1.10;;;21.20;60.70;;;;;;5018857;28;20180;-69
2022/06/11 03:15:19;;;;;;;1.30;1.20;;;21.20;60.70;;;;;;5017921;28;20322;-69
2022/06/11 03:17:48;;;;;;;1.48;1.33;;;21.20;60.70;;;;;;5019770;28;20203;-69
2022/06/11 03:20:16;;;;;;;2.03;1.27;;;21.10;60.60;;;;;;5006917;28;20185;-69
2022/06/11 03:22:42;;;;;;;1.10;1.00;;;21.20;60.70;;;;;;5016297;28;20176;-69
2022/06/11 03:25:10;;;;;;;1.75;1.40;;;21.20;60.70;;;;;;5018198;28;20184;-69
2022/06/11 03:27:39;;;;;;;1.50;1.40;;;21.20;60.70;;;;;;5034982;28;20188;-69
2022/06/11 03:30:09;;;;;;;1.50;1.40;;;21.20;60.70;;;;;;5002801;28;20242;-69
2022/06/11 03:32:35;;;;;;;1.55;1.40;;;21.10;60.50;;;;;;5018847;28;20192;-69
2022/06/11 03:35:01;;;;;;;1.50;1.40;;;21.10;60.60;;;;;;5034830;28;20176;-69
2022/06/11 03:37:27;;;;;;;1.15;1.15;;;21.10;60.60;;;;;;5018897;28;20180;-69
2022/06/11 03:39:53;;;;;;;1.30;1.20;;;21.10;60.60;;;;;;5018807;28;20191;-69
2022/06/11 03:42:19;;;;;;;1.00;1.00;;;21.20;60.70;;;;;;5018430;28;20191;-69
2022/06/11 03:44:45;;;;;;;1.40;1.30;;;21.10;60.60;;;;;;5021169;28;20188;-69
2022/06/11 03:47:11;;;;;;;1.50;1.40;;;21.10;60.60;;;;;;4998794;28;20264;-69
2022/06/11 03:49:37;;;;;;;1.30;1.20;;;21.10;60.60;;;;;;4999087;28;20213;-69
2022/06/11 03:52:06;;;;;;;1.33;1.23;;;21.10;60.60;;;;;;5007191;28;20188;-69
2022/06/11 03:54:32;;;;;;;1.10;1.10;;;21.10;60.60;;;;;;4982213;28;20243;-69
2022/06/11 03:56:58;;;;;;;1.40;1.30;;;21.10;60.60;;;;;;4998799;28;20183;-69
2022/06/11 03:59:24;;;;;;;1.02;1.02;;;21.10;60.60;;;;;;4998679;28;20220;-69
2022/06/11 04:01:51;;;;;;;1.30;1.20;;;21.10;60.60;;;;;;4999534;28;20196;-69
2022/06/11 04:04:20;;;;;;;1.80;1.70;;;21.10;60.60;;;;;;4997783;28;20652;-70
2022/06/11 04:06:56;;;;;;;1.75;1.17;;;21.10;60.60;;;;;;4982519;28;20242;-69
2022/06/11 04:09:31;;;;;;;1.63;1.27;;;21.10;60.60;;;;;;4999762;28;20223;-69
2022/06/11 04:11:59;;;;;;;1.42;1.33;;;21.10;60.60;;;;;;4998192;28;20184;-69
2022/06/11 04:14:25;;;;;;;1.38;1.27;;;21.10;60.60;;;;;;4998395;28;20212;-69
2022/06/11 04:17:12;;;;;;;1.70;1.60;;;21.10;60.60;;;;;;4997109;28;20681;-69
2022/06/11 04:19:43;;;;;;;1.45;1.35;;;21.10;60.60;;;;;;5004231;28;20215;-69
2022/06/11 04:22:09;;;;;;;1.25;1.25;;;21.10;60.60;;;;;;5008820;28;20274;-69
2022/06/11 04:24:35;;;;;;;1.17;1.08;;;21.10;60.70;;;;;;5016161;28;20211;-69
2022/06/11 04:27:05;;;;;;;1.25;1.15;;;21.10;60.60;;;;;;5033041;28;20287;-69
2022/06/11 04:29:36;;;;;;;1.50;1.40;;;21.00;60.50;;;;;;5016732;28;20216;-69
2022/06/11 04:32:06;;;;;;;1.30;1.20;;;21.10;60.60;;;;;;5017507;28;20188;-70
2022/06/11 04:34:32;;;;;;;1.38;1.27;;;21.10;60.60;;;;;;5016267;28;20211;-69
2022/06/11 04:36:59;;;;;;;1.40;1.30;;;21.10;60.70;;;;;;5000769;28;20252;-69
2022/06/11 04:39:30;;;;;;;1.13;1.13;;;21.00;60.50;;;;;;5017230;28;20203;-69
2022/06/11 04:41:57;;;;;;;1.52;1.40;;;21.10;60.70;;;;;;5018253;28;20195;-69
2022/06/11 04:44:24;;;;;;;1.45;1.35;;;21.10;60.70;;;;;;5033568;28;20224;-69
2022/06/11 04:46:51;;;;;;;1.15;1.10;;;21.10;60.60;;;;;;5000860;28;20195;-69
2022/06/11 04:49:18;;;;;;;1.33;1.33;;;21.10;60.70;;;;;;5027475;28;20212;-69
2022/06/11 04:51:44;;;;;;;1.35;1.30;;;21.10;60.70;;;;;;5000618;28;20196;-69
2022/06/11 04:54:10;;;;;;;1.52;1.42;;;21.10;60.70;;;;;;4998471;28;20208;-68
2022/06/11 04:56:36;;;;;;;1.40;1.30;;;21.10;60.70;;;;;;4998845;28;20180;-69
2022/06/11 04:59:03;;;;;;;1.30;1.20;;;21.10;60.70;;;;;;4997493;28;20227;-69
2022/06/11 05:01:30;;;;;;;1.20;1.20;;;21.10;60.70;;;;;;4998346;28;20652;-69
2022/06/11 05:03:56;;;;;;;1.05;1.05;;;21.00;60.60;;;;;;4997640;28;20204;-69
2022/06/11 05:06:28;;;;;;;1.50;1.40;;;21.00;60.60;;;;;;4998407;28;20181;-69
2022/06/11 05:08:54;;;;;;;1.35;1.25;;;21.10;60.80;;;;;;4965763;28;20233;-69
2022/06/11 05:11:20;;;;;;;1.40;1.30;;;21.10;60.80;;;;;;4997083;28;20184;-69
2022/06/11 05:13:46;;;;;;;1.20;1.20;;;21.10;60.80;;;;;;4998800;28;20268;-69
2022/06/11 05:16:17;;;;;;;1.30;1.20;;;21.10;60.80;;;;;;4980597;28;20205;-69
2022/06/11 05:18:43;;;;;;;1.20;1.10;;;21.10;60.80;;;;;;4997800;28;20294;-69
2022/06/11 05:21:09;;;;;;;1.00;1.00;;;21.00;60.70;;;;;;4999854;28;20219;-69
2022/06/11 05:23:35;;;;;;;1.20;1.20;;;21.10;60.80;;;;;;4999963;28;20184;-69
2022/06/11 05:26:01;;;;;;;0.90;0.90;;;21.10;60.90;;;;;;5015954;28;20187;-69
2022/06/11 05:28:32;;;;;;;1.50;1.40;;;21.00;60.80;;;;;;5000439;28;20259;-68
2022/06/11 05:30:58;;;;;;;1.23;1.13;;;21.00;60.80;;;;;;5018124;28;20164;-69
2022/06/11 05:33:27;;;;;;;1.38;1.27;;;21.10;60.90;;;;;;5017578;28;20199;-70
2022/06/11 05:35:53;;;;;;;1.20;1.10;;;21.10;60.90;;;;;;4999821;28;20184;-69
2022/06/11 05:38:25;;;;;;;1.33;1.27;;;21.10;60.90;;;;;;5015129;28;20208;-69
2022/06/11 05:40:53;;;;;;;1.40;1.30;;;21.10;60.90;;;;;;4998923;28;20192;-69
2022/06/11 05:43:19;;;;;;;2.00;1.50;;;21.10;60.90;;;;;;4960100;28;20200;-69
2022/06/11 05:46:00;;;;;;;1.40;1.30;;;21.10;60.90;;;;;;4959570;28;20200;-69
2022/06/11 05:48:41;;;;;;;1.20;1.20;;;21.10;60.90;;;;;;4974618;28;20229;-69
2022/06/11 05:51:14;;;;;;;0.90;0.90;;;21.10;60.90;;;;;;4993415;28;20173;-69
2022/06/11 05:53:41;;;;;;;1.10;1.00;;;21.20;61.00;;;;;;4993839;28;20188;-70
2022/06/11 05:56:07;;;;;;;1.20;1.20;;;21.10;60.90;;;;;;4994398;28;20177;-69
2022/06/11 05:58:40;;;;;;;1.10;1.10;;;21.20;61.10;;;;;;4993522;28;20208;-70
2022/06/11 06:01:07;;;;;;;1.10;1.10;;;21.20;61.10;;;;;;5010098;28;20209;-70
2022/06/11 06:03:33;;;;;;;1.45;1.35;;;21.20;61.10;;;;;;4993300;28;20291;-70
2022/06/11 06:05:59;;;;;;;1.38;1.27;;;21.20;61.10;;;;;;4992567;28;20225;-70
2022/06/11 06:08:25;;;;;;;1.30;1.20;;;21.20;61.10;;;;;;4996841;28;20256;-69
2022/06/11 06:10:50;;;;;;;1.35;1.33;;;21.20;61.20;;;;;;4997476;28;20181;-69
2022/06/11 06:16:00;;;;;;;1.30;1.20;;;21.20;61.20;;;;;;4996621;28;20189;-70
2022/06/11 06:18:26;;;;;;;1.83;1.40;;;21.10;61.10;;;;;;4997833;28;20201;-69
2022/06/11 06:20:52;;;;;;;1.65;1.55;;;21.20;61.30;;;;;;5007574;28;20191;-69
2022/06/11 06:23:18;;;;;;;1.58;1.48;;;21.20;61.40;;;;;;4986135;28;20275;-69
2022/06/11 06:25:44;;;;;;;1.38;1.15;;;21.10;61.20;;;;;;4997368;28;20217;-69
2022/06/11 06:28:10;;;;;;;1.45;1.35;;;21.20;61.30;;;;;;4995501;28;20283;-70
2022/06/11 06:30:36;;;;;;;1.35;1.25;;;21.20;61.40;;;;;;5014136;28;20267;-70
2022/06/11 06:33:02;;;;;;;1.30;1.20;;;21.20;61.40;;;;;;4997289;28;20188;-70
2022/06/11 06:35:27;;;;;;;1.20;1.20;;;21.20;61.50;;;;;;4996533;28;20196;-70
2022/06/11 06:37:53;;;;;;;1.08;0.95;;;21.10;61.30;;;;;;4997595;28;20259;-69
2022/06/11 06:40:19;;;;;;;1.00;1.00;;;21.20;61.40;;;;;;5014203;28;20204;-69
2022/06/11 06:42:45;;;;;;;1.38;1.27;;;21.20;61.40;;;;;;5013774;28;20181;-69
2022/06/11 06:45:11;;;;;;;1.00;1.00;;;21.20;61.50;;;;;;4996934;28;20204;-69
2022/06/11 06:47:37;;;;;;;1.10;1.10;;;21.20;61.40;;;;;;4997944;28;20173;-69
2022/06/11 06:50:04;;;;;;;1.08;1.08;;;21.20;61.60;;;;;;4998626;28;20197;-69
2022/06/11 06:52:30;;;;;;;1.50;1.40;;;21.20;61.60;;;;;;5012394;28;20661;-69
2022/06/11 06:54:56;;;;;;;1.40;1.30;;;21.20;61.60;;;;;;4990529;28;20184;-69
2022/06/11 06:57:21;;;;;;;1.10;1.10;;;21.20;61.50;;;;;;5015701;28;20196;-69
2022/06/11 06:59:47;;;;;;;1.30;1.30;;;21.20;61.50;;;;;;5017542;28;20215;-69
2022/06/11 07:02:13;;;;;;;1.40;1.10;;;21.30;61.60;;;;;;5032815;28;20238;-69
2022/06/11 07:04:39;;;;;;;1.80;1.70;;;21.20;61.60;;;;;;4999336;28;20192;-70
2022/06/11 07:07:06;;;;;;;1.10;1.10;;;21.20;61.50;;;;;;5033407;28;20194;-69
2022/06/11 07:09:33;;;;;;;1.40;1.30;;;21.20;61.50;;;;;;4976524;28;20221;-69
2022/06/11 07:11:58;;;;;;;1.20;1.15;;;21.20;61.70;;;;;;4987681;28;20185;-69
2022/06/11 07:14:24;;;;;;;1.52;1.15;;;21.20;61.70;;;;;;4994287;28;20193;-67
2022/06/11 07:16:57;;;;;;;2.75;1.40;;;21.20;61.70;;;;;;4994401;28;20189;-69
2022/06/11 07:19:32;;;;;;;1.20;1.17;;;21.30;61.80;;;;;;4978155;28;20247;-68
2022/06/11 07:22:08;;;;;;;1.35;1.20;;;21.30;61.80;;;;;;5011859;28;20188;-69
2022/06/11 07:24:39;;;;;;;1.75;1.30;;;21.30;61.80;;;;;;5018574;28;20340;-68
2022/06/11 07:27:10;;;;;;;1.17;1.17;;;21.30;61.60;;;;;;4976444;28;20205;-69
2022/06/11 07:29:51;;;;;;;0.95;0.95;;;21.20;61.40;;;;;;4975565;28;20229;-69
2022/06/11 07:32:22;;;;;;;1.55;1.17;;;21.20;61.40;;;;;;4959412;28;20177;-69
2022/06/11 07:34:48;;;;;;;1.50;1.40;;;21.30;61.60;;;;;;4983090;28;20228;-69
2022/06/11 07:37:15;;;;;;;1.30;1.20;;;21.30;61.50;;;;;;4978407;28;20193;-69
2022/06/11 07:39:41;;;;;;;2.30;1.30;;;21.30;61.50;;;;;;4978094;28;20657;-69
2022/06/11 07:42:07;;;;;;;1.20;1.20;;;21.30;62.20;;;;;;4978363;28;20216;-69
2022/06/11 07:44:36;;;;;;;1.35;1.25;;;21.30;61.50;;;;;;4993750;28;20200;-68
2022/06/11 07:47:03;;;;;;;2.55;1.58;;;21.30;61.60;;;;;;4994287;28;20232;-68
2022/06/11 07:49:29;;;;;;;1.85;1.30;;;21.30;61.50;;;;;;4994456;28;20220;-68
2022/06/11 07:51:55;;;;;;;1.85;1.40;;;21.30;61.30;;;;;;4995727;28;20748;-68
2022/06/11 07:54:21;;;;;;;2.03;1.40;;;21.40;61.30;;;;;;4988995;28;20288;-68
2022/06/11 07:56:47;;;;;;;1.65;1.55;;;21.40;61.40;;;;;;5012451;28;20191;-69
2022/06/11 07:59:13;;;;;;;2.10;1.50;;;21.30;61.30;;;;;;4997785;28;20203;-69
2022/06/11 08:01:39;;;;;;;1.70;1.50;;;21.40;61.30;;;;;;4998235;28;20190;-69
2022/06/11 08:04:04;;;;;;;2.38;1.50;;;21.40;61.20;;;;;;5014273;28;20196;-69
2022/06/11 08:06:31;;;;;;;1.40;1.30;;;21.40;61.10;;;;;;5014563;28;20263;-68
2022/06/11 08:08:57;;;;;;;2.00;1.42;;;21.40;61.30;;;;;;5013809;28;20222;-68
2022/06/11 08:11:24;;;;;;;2.15;1.52;;;21.40;61.20;;;;;;4997828;28;20184;-69
2022/06/11 08:13:50;;;;;;;1.17;1.10;;;21.40;60.90;;;;;;5012235;28;20192;-69
2022/06/11 08:16:16;;;;;;;1.55;1.45;;;21.40;60.90;;;;;;4993396;28;20205;-70
2022/06/11 08:18:44;;;;;;;2.08;1.40;;;21.40;61.00;;;;;;4993359;28;20216;-69
2022/06/11 08:21:09;;;;;;;2.10;1.20;;;21.40;61.00;;;;;;5008985;28;20239;-69
2022/06/11 08:23:36;;;;;;;1.38;1.30;;;21.40;61.00;;;;;;5001666;28;20187;-69
2022/06/11 08:26:03;;;;;;;1.83;1.60;;;21.40;61.00;;;;;;4957377;28;20657;-69
2022/06/11 08:28:29;;;;;;;1.80;1.30;;;21.40;61.00;;;;;;4958391;28;20293;-69
2022/06/11 08:30:55;;;;;;;1.83;1.50;;;21.40;60.80;;;;;;4956796;28;20190;-69
2022/06/11 08:33:21;;;;;;;1.48;1.38;;;21.40;60.80;;;;;;4974452;28;20269;-69
2022/06/11 08:35:47;;;;;;;2.72;1.60;;;21.40;60.80;;;;;;4975071;28;20199;-69
2022/06/11 08:38:13;;;;;;;1.50;1.40;;;21.40;60.60;;;;;;4974945;28;20717;-69
2022/06/11 08:40:54;;;;;;;1.98;1.50;;;21.40;60.50;;;;;;4974897;28;20280;-69
2022/06/11 08:43:34;;;;;;;1.55;1.45;;;21.40;60.50;;;;;;4975665;28;20236;-69
2022/06/11 08:46:21;;;;;;;2.28;1.52;;;21.40;60.60;;;;;;4958212;28;20181;-69
2022/06/11 08:49:08;;;;;;;1.50;1.40;;;21.40;60.70;;;;;;4958963;28;20264;-69
2022/06/11 08:51:51;;;;;;;1.40;1.30;;;21.50;60.80;;;;;;4974571;28;20240;-69
2022/06/11 08:54:25;;;;;;;1.40;1.30;;;21.40;60.70;;;;;;4986559;28;20200;-69
2022/06/11 08:57:23;;;;;;;1.40;1.33;;;21.40;60.60;;;;;;4994388;28;20177;-69
2022/06/11 09:00:44;;;;;;;1.35;1.25;;;21.50;60.60;;;;;;5010126;28;20221;-69
2022/06/11 09:04:10;;;;;;;1.20;1.10;;;21.50;60.80;;;;;;4975994;28;20296;-69
2022/06/11 09:07:10;;;;;;;1.40;1.30;;;21.60;61.00;;;;;;4989060;28;20201;-69
2022/06/11 09:09:45;;;;;;;1.55;1.15;;;21.50;61.20;;;;;;4993993;28;20680;-69
2022/06/11 09:12:48;;;;;;;1.30;1.20;;;21.60;61.30;;;;;;4974290;28;20243;-69
2022/06/11 09:15:40;;;;;;;1.35;1.25;;;21.50;61.10;;;;;;5004674;28;20189;-69
2022/06/11 09:18:15;;;;;;;2.97;1.25;;;21.50;61.50;;;;;;5010254;28;20201;-69
2022/06/11 09:21:01;;;;;;;1.83;1.50;;;21.50;61.50;;;;;;4992607;28;20271;-69
2022/06/11 09:24:25;;;;;;;1.60;1.40;;;21.50;61.30;;;;;;4987170;28;20282;-69
2022/06/11 09:27:40;;;;;;;1.45;1.35;;;21.50;61.30;;;;;;4992921;28;20251;-69
2022/06/11 09:30:16;;;;;;;1.35;1.25;;;21.50;61.30;;;;;;4973131;28;20233;-69
2022/06/11 09:33:00;;;;;;;1.65;1.10;;;21.50;61.20;;;;;;4984323;28;21123;-69
2022/06/11 09:35:58;;;;;;;1.30;1.20;;;21.50;61.20;;;;;;4987261;28;20185;-69
2022/06/11 09:38:37;;;;;;;3.15;1.45;;;21.50;61.20;;;;;;4953901;28;20228;-69
2022/06/11 09:41:21;;;;;;;2.10;1.50;;;21.50;62.10;;;;;;4974442;28;20634;-69
2022/06/11 09:44:17;;;;;;;1.85;1.40;;;21.50;61.20;;;;;;4960244;28;20268;-69
2022/06/11 09:47:04;;;;;;;1.92;1.38;;;21.50;61.40;;;;;;4959522;28;20182;-69
2022/06/11 09:49:52;;;;;;;1.60;1.50;;;21.50;61.30;;;;;;4978495;28;20240;-69
2022/06/11 09:53:12;;;;;;;2.03;1.30;;;21.50;61.20;;;;;;4979059;28;20231;-68
2022/06/11 09:55:57;;;;;;;1.50;1.35;;;21.50;61.00;;;;;;4936848;29;20183;-69
2022/06/11 09:59:03;;;;;;;1.60;1.33;;;21.60;61.30;;;;;;4996756;28;20275;-69
2022/06/11 10:01:44;;;;;;;1.40;1.30;;;21.60;61.40;;;;;;4993564;28;20177;-69
2022/06/11 10:04:15;;;;;;;1.70;1.60;;;21.50;61.20;;;;;;4993824;28;20216;-69
2022/06/11 10:06:52;;;;;;;3.15;1.60;;;21.60;61.70;;;;;;4995273;28;20628;-69
2022/06/11 10:09:32;;;;;;;2.38;1.48;;;21.60;61.40;;;;;;4993514;28;20226;-69
2022/06/11 10:12:18;;;;;;;2.25;1.80;;;21.60;61.70;;;;;;5012453;28;20271;-68
2022/06/11 10:14:58;;;;;;;2.17;1.90;;;21.60;61.70;;;;;;4995517;28;20220;-70
2022/06/11 10:17:44;;;;;;;2.22;1.67;;;21.60;61.80;;;;;;4995852;28;20189;-69
2022/06/11 10:20:24;;;;;;;2.78;1.75;;;21.60;61.70;;;;;;4995809;28;20223;-69
2022/06/11 10:23:30;;;;;;;2.20;2.00;;;21.60;61.90;;;;;;4989150;28;20188;-69
2022/06/11 10:26:06;;;;;;;3.17;1.90;;;21.60;62.30;;;;;;5003367;28;20751;-69
2022/06/11 10:28:37;;;;;;;3.05;1.90;;;21.70;63.20;;;;;;4995701;28;20758;-69
2022/06/11 10:31:16;;;;;;;3.65;1.85;;;21.60;62.20;;;;;;4995906;28;20177;-69
2022/06/11 10:34:13;;;;;;;3.85;2.15;;;21.60;62.20;;;;;;4995854;28;20196;-69
2022/06/11 10:36:52;;;;;;;3.25;2.20;;;21.60;62.60;;;;;;4994797;28;20284;-69
2022/06/11 10:39:35;;;;;;;3.28;1.83;;;21.60;62.60;;;;;;4986365;28;20213;-69
2022/06/11 10:42:22;;;;;;;3.38;2.03;;;21.70;62.70;;;;;;4959375;28;20273;-69
2022/06/11 10:44:55;;;;;;;2.65;2.10;;;21.70;62.70;;;;;;4974744;28;20212;-69
2022/06/11 10:47:34;;;;;;;3.90;2.58;;;21.60;62.10;;;;;;4975449;28;20193;-69
2022/06/11 10:50:07;;;;;;;5.25;2.55;;;21.60;62.40;;;;;;4959340;28;20209;-69
2022/06/11 10:52:36;;;;;;;2.90;2.00;;;21.60;63.10;;;;;;4981863;28;20204;-68
2022/06/11 10:55:08;;;;;;;3.55;1.88;;;21.60;62.20;;;;;;4978045;28;20253;-69
2022/06/11 10:57:37;;;;;;;3.40;2.42;;;21.60;62.10;;;;;;4995843;28;20173;-69
2022/06/11 11:00:16;;;;;;;3.35;2.30;;;21.60;62.50;;;;;;4994802;28;20193;-69
2022/06/11 11:03:00;;;;;;;4.65;2.30;;;21.70;62.70;;;;;;4994207;28;20239;-69
2022/06/11 11:06:00;;;;;;;4.25;2.17;;;21.60;62.60;;;;;;4994429;28;20648;-69
2022/06/11 11:08:25;;;;;;;3.70;2.10;;;21.60;62.60;;;;;;4995059;28;20224;-69
2022/06/11 11:10:58;;;;;;;3.05;2.03;;;21.60;62.20;;;;;;4995099;28;20657;-69
2022/06/11 11:13:43;;;;;;;3.03;2.13;;;21.60;62.30;;;;;;5011075;28;20185;-70
2022/06/11 11:16:12;;;;;;;3.75;2.05;;;21.70;62.10;;;;;;5010515;28;20536;-70
2022/06/11 11:18:53;;;;;;;3.28;2.13;;;21.70;62.50;;;;;;4994560;28;20208;-69
2022/06/11 11:21:36;;;;;;;4.20;2.22;;;21.70;62.10;;;;;;4995106;28;20193;-69
2022/06/11 11:24:15;;;;;;;4.10;2.53;;;21.70;62.50;;;;;;5003325;28;20185;-69
2022/06/11 11:26:59;;;;;;;3.15;2.20;;;21.70;62.30;;;;;;5010932;28;20192;-70
2022/06/11 11:29:28;;;;;;;2.80;2.20;;;21.70;62.40;;;;;;4996733;28;20246;-69
2022/06/11 11:31:58;;;;;;;5.05;2.47;;;21.70;62.70;;;;;;5013511;28;20176;-69
2022/06/11 11:34:25;;;;;;;3.17;2.20;;;21.70;62.00;;;;;;5013499;28;20231;-69
2022/06/11 11:37:15;;;;;;;3.83;2.22;;;21.70;62.20;;;;;;5014234;28;20176;-69
2022/06/11 11:39:57;;;;;;;3.38;2.20;;;21.70;62.30;;;;;;5013573;28;20208;-69
2022/06/11 11:42:31;;;;;;;3.00;2.00;;;21.70;62.70;;;;;;5014060;28;20191;-72
2022/06/11 11:44:57;;;;;;;4.95;2.20;;;21.70;62.70;;;;;;4996936;28;20190;-71
2022/06/11 11:47:35;;;;;;;4.07;2.40;;;21.80;62.80;;;;;;5013631;28;20238;-72
2022/06/11 11:50:07;;;;;;;4.40;2.30;;;21.80;62.80;;;;;;4997380;28;20578;-68
2022/06/11 11:52:42;;;;;;;3.40;2.10;;;21.70;62.50;;;;;;4989804;28;20204;-70
2022/06/11 11:55:31;;;;;;;3.38;2.17;;;21.70;62.30;;;;;;4994657;28;20173;-69
2022/06/11 11:58:27;;;;;;;3.58;2.45;;;21.70;62.40;;;;;;4993028;28;20223;-69
2022/06/11 12:01:05;;;;;;;3.97;2.20;;;21.80;62.80;;;;;;4986756;28;20551;-69
2022/06/11 12:03:47;;;;;;;2.20;2.00;;;21.70;62.70;;;;;;5012071;28;20216;-72
2022/06/11 12:06:26;;;;;;;3.05;2.33;;;21.70;62.70;;;;;;5010705;28;20184;-72
2022/06/11 12:08:55;;;;;;;2.25;2.05;;;21.80;62.80;;;;;;4986592;28;20209;-72
2022/06/11 12:11:24;;;;;;;2.97;1.80;;;21.70;62.70;;;;;;4979977;28;20184;-72
2022/06/11 12:14:25;;;;;;;5.10;2.55;;;21.70;62.20;;;;;;4990751;28;20192;-72
2022/06/11 12:16:55;;;;;;;2.78;2.15;;;21.70;62.70;;;;;;4998961;28;20200;-70
2022/06/11 12:19:20;;;;;;;4.68;2.13;;;21.80;62.80;;;;;;5028918;28;20204;-69
2022/06/11 12:22:51;;;;;;;5.03;2.03;;;21.80;62.90;;;;;;5003577;28;20254;-69
2022/06/11 12:25:40;;;;;;;4.38;2.25;;;21.80;62.90;;;;;;4964852;28;20673;-70
2022/06/11 12:28:13;;;;;;;4.63;2.17;;;21.80;62.80;;;;;;5007096;28;20205;-69
2022/06/11 12:30:39;;;;;;;3.45;1.90;;;21.80;62.80;;;;;;4957600;28;20193;-70
2022/06/11 12:33:13;;;;;;;2.53;2.10;;;21.80;62.80;;;;;;4974468;28;20196;-69
2022/06/11 12:36:03;;;;;;;2.92;1.80;;;21.80;62.80;;;;;;4956414;28;20546;-69
2022/06/11 12:38:55;;;;;;;3.15;2.30;;;21.80;62.80;;;;;;4974373;28;20280;-69
2022/06/11 12:41:40;;;;;;;2.97;1.95;;;21.80;62.80;;;;;;4972717;28;20213;-69
2022/06/11 12:44:47;;;;;;;3.38;2.10;;;21.80;63.60;;;;;;4957479;28;20192;-69
2022/06/11 12:47:45;;;;;;;2.72;1.80;;;21.80;62.80;;;;;;4972881;28;20204;-69
2022/06/11 12:50:45;;;;;;;2.95;2.03;;;21.80;62.80;;;;;;4973417;28;20213;-69
2022/06/11 12:53:35;;;;;;;5.15;2.22;;;21.80;62.80;;;;;;4970344;28;20188;-69
2022/06/11 12:56:12;;;;;;;2.70;2.30;;;21.80;62.80;;;;;;4995568;28;20188;-68
2022/06/11 12:59:05;;;;;;;2.00;1.73;;;21.80;62.80;;;;;;4996101;28;20691;-69
2022/06/11 13:01:58;;;;;;;2.28;2.00;;;21.80;62.80;;;;;;5012422;28;20188;-69
2022/06/11 13:04:55;;;;;;;2.60;2.15;;;21.80;62.80;;;;;;5029297;28;20180;-69
2022/06/11 13:07:35;;;;;;;2.63;1.83;;;21.80;62.80;;;;;;4996349;28;20203;-69
2022/06/11 13:10:44;;;;;;;5.15;2.10;;;21.80;62.90;;;;;;4996106;28;20219;-69
2022/06/11 13:13:57;;;;;;;5.90;1.95;;;21.80;62.80;;;;;;4996432;28;20252;-69
2022/06/11 13:17:08;;;;;;;2.83;2.10;;;21.80;63.10;;;;;;5005901;28;20195;-69
2022/06/11 13:20:06;;;;;;;3.38;2.13;;;21.80;62.80;;;;;;4980398;28;20220;-69
2022/06/11 13:23:30;;;;;;;5.03;1.92;;;21.80;63.00;;;;;;4998062;28;20195;-70
2022/06/11 13:26:38;;;;;;;2.65;1.80;;;21.80;62.80;;;;;;5010642;28;20192;-69
2022/06/11 13:29:50;;;;;;;3.25;1.77;;;21.80;62.80;;;;;;4990556;28;20232;-69
2022/06/11 13:32:28;;;;;;;6.85;2.35;;;21.80;62.90;;;;;;4999890;28;20183;-69
2022/06/11 13:35:29;;;;;;;2.33;1.65;;;21.80;62.80;;;;;;4999706;28;20770;-69
2022/06/11 13:38:29;;;;;;;2.13;1.73;;;21.80;62.90;;;;;;5018038;28;20215;-69
2022/06/11 13:41:05;;;;;;;2.50;1.98;;;21.80;62.80;;;;;;4999241;28;20543;-69